sensor_id;sensor_type;location;lat;lon;timestamp;P1;P2;P0
39955;PMS5003;25631;51.516;-0.470;2022-09-03T00:00:12;7;7;
39955;PMS5003;25631;51.516;-0.470;2022-09-03T00:02:52;7;7;
39955;PMS5003;25631;51.516;-0.470;2022-09-03T00:05:37;7;7;
39955;PMS5003;25631;51.516;-0.470;2022-09-03T00:08:19;7;7;
39955;PMS5003;25631;51.516;-0.470;2022-09-03T00:11:02;7;7;
39955;PMS5003;25631;51.516;-0.470;2022-09-03T00:13:47;7;7;
39955;PMS5003;25631;51.516;-0.470;2022-09-03T00:16:30;7;7;
39955;PMS5003;25631;51.516;-0.470;2022-09-03T00:19:15;7;7;
39955;PMS5003;25631;51.516;-0.470;2022-09-03T00:21:56;7;7;
39955;PMS5003;25631;51.516;-0.470;2022-09-03T00:24:35;8;7;
39955;PMS5003;25631;51.516;-0.470;2022-09-03T00:27:16;8;7;
39955;PMS5003;25631;51.516;-0.470;2022-09-03T00:29:58;8;7;
39955;PMS5003;25631;51.516;-0.470;2022-09-03T00:32:39;9;8;
39955;PMS5003;25631;51.516;-0.470;2022-09-03T00:35:22;9;8;
39955;PMS5003;25631;51.516;-0.470;2022-09-03T00:38:02;9;8;
39955;PMS5003;25631;51.516;-0.470;2022-09-03T00:40:44;9;8;
39955;PMS5003;25631;51.516;-0.470;2022-09-03T00:43:34;9;8;
39955;PMS5003;25631;51.516;-0.470;2022-09-03T00:46:25;8;7;
39955;PMS5003;25631;51.516;-0.470;2022-09-03T00:49:15;8;7;
39955;PMS5003;25631;51.516;-0.470;2022-09-03T00:52:06;8;7;
39955;PMS5003;25631;51.516;-0.470;2022-09-03T00:54:51;8;7;
39955;PMS5003;25631;51.516;-0.470;2022-09-03T00:57:40;8;7;
39955;PMS5003;25631;51.516;-0.470;2022-09-03T01:00:29;8;7;
39955;PMS5003;25631;51.516;-0.470;2022-09-03T01:03:06;8;7;
39955;PMS5003;25631;51.516;-0.470;2022-09-03T01:05:51;7;6;
39955;PMS5003;25631;51.516;-0.470;2022-09-03T01:08:41;7;6;
39955;PMS5003;25631;51.516;-0.470;2022-09-03T01:11:31;7;6;
39955;PMS5003;25631;51.516;-0.470;2022-09-03T01:14:21;8;7;
39955;PMS5003;25631;51.516;-0.470;2022-09-03T01:17:12;10;9;
39955;PMS5003;25631;51.516;-0.470;2022-09-03T01:20:32;10;9;
39955;PMS5003;25631;51.516;-0.470;2022-09-03T01:23:27;10;9;
39955;PMS5003;25631;51.516;-0.470;2022-09-03T01:26:17;10;10;
39955;PMS5003;25631;51.516;-0.470;2022-09-03T01:29:07;10;10;
39955;PMS5003;25631;51.516;-0.470;2022-09-03T01:31:53;10;10;
39955;PMS5003;25631;51.516;-0.470;2022-09-03T01:34:42;8;8;
39955;PMS5003;25631;51.516;-0.470;2022-09-03T01:37:29;8;8;
39955;PMS5003;25631;51.516;-0.470;2022-09-03T01:40:14;8;8;
39955;PMS5003;25631;51.516;-0.470;2022-09-03T01:43:02;9;9;
39955;PMS5003;25631;51.516;-0.470;2022-09-03T01:45:50;9;9;
39955;PMS5003;25631;51.516;-0.470;2022-09-03T01:48:31;9;9;
39955;PMS5003;25631;51.516;-0.470;2022-09-03T01:51:19;8;8;
39955;PMS5003;25631;51.516;-0.470;2022-09-03T01:54:02;8;8;
39955;PMS5003;25631;51.516;-0.470;2022-09-03T01:57:05;8;8;
39955;PMS5003;25631;51.516;-0.470;2022-09-03T01:59:54;7;7;
39955;PMS5003;25631;51.516;-0.470;2022-09-03T02:02:34;12;10;
39955;PMS5003;25631;51.516;-0.470;2022-09-03T02:05:12;10;9;
39955;PMS5003;25631;51.516;-0.470;2022-09-03T02:07:53;10;9;
39955;PMS5003;25631;51.516;-0.470;2022-09-03T02:10:37;10;9;
39955;PMS5003;25631;51.516;-0.470;2022-09-03T02:13:19;10;9;
39955;PMS5003;25631;51.516;-0.470;2022-09-03T02:15:59;10;9;
39955;PMS5003;25631;51.516;-0.470;2022-09-03T02:18:44;10;9;
39955;PMS5003;25631;51.516;-0.470;2022-09-03T02:21:26;9;9;
39955;PMS5003;25631;51.516;-0.470;2022-09-03T02:24:05;9;9;
39955;PMS5003;25631;51.516;-0.470;2022-09-03T02:26:43;9;9;
39955;PMS5003;25631;51.516;-0.470;2022-09-03T02:29:20;9;9;
39955;PMS5003;25631;51.516;-0.470;2022-09-03T02:31:57;9;9;
39955;PMS5003;25631;51.516;-0.470;2022-09-03T02:34:33;9;9;
39955;PMS5003;25631;51.516;-0.470;2022-09-03T02:37:11;9;9;
39955;PMS5003;25631;51.516;-0.470;2022-09-03T02:39:49;9;9;
39955;PMS5003;25631;51.516;-0.470;2022-09-03T02:42:26;9;9;
39955;PMS5003;25631;51.516;-0.470;2022-09-03T02:45:04;12;10;
39955;PMS5003;25631;51.516;-0.470;2022-09-03T02:47:49;11;10;
39955;PMS5003;25631;51.516;-0.470;2022-09-03T02:50:29;11;10;
39955;PMS5003;25631;51.516;-0.470;2022-09-03T02:53:06;11;10;
39955;PMS5003;25631;51.516;-0.470;2022-09-03T02:55:43;10;9;
39955;PMS5003;25631;51.516;-0.470;2022-09-03T02:58:20;10;9;
39955;PMS5003;25631;51.516;-0.470;2022-09-03T03:00:57;10;9;
39955;PMS5003;25631;51.516;-0.470;2022-09-03T03:03:33;10;8;
39955;PMS5003;25631;51.516;-0.470;2022-09-03T03:06:10;10;8;
39955;PMS5003;25631;51.516;-0.470;2022-09-03T03:08:47;10;8;
39955;PMS5003;25631;51.516;-0.470;2022-09-03T03:11:24;11;8;
39955;PMS5003;25631;51.516;-0.470;2022-09-03T03:14:01;11;8;
39955;PMS5003;25631;51.516;-0.470;2022-09-03T03:16:37;11;8;
39955;PMS5003;25631;51.516;-0.470;2022-09-03T03:19:14;10;9;
39955;PMS5003;25631;51.516;-0.470;2022-09-03T03:21:50;10;9;
39955;PMS5003;25631;51.516;-0.470;2022-09-03T03:24:27;10;9;
39955;PMS5003;25631;51.516;-0.470;2022-09-03T03:27:03;11;9;
39955;PMS5003;25631;51.516;-0.470;2022-09-03T03:29:39;11;10;
39955;PMS5003;25631;51.516;-0.470;2022-09-03T03:32:16;11;10;
39955;PMS5003;25631;51.516;-0.470;2022-09-03T03:34:53;11;10;
39955;PMS5003;25631;51.516;-0.470;2022-09-03T03:37:29;12;10;
39955;PMS5003;25631;51.516;-0.470;2022-09-03T03:40:06;13;11;
39955;PMS5003;25631;51.516;-0.470;2022-09-03T03:42:44;13;11;
39955;PMS5003;25631;51.516;-0.470;2022-09-03T03:45:20;13;11;
39955;PMS5003;25631;51.516;-0.470;2022-09-03T03:47:57;13;11;
39955;PMS5003;25631;51.516;-0.470;2022-09-03T03:50:33;12;10;
39955;PMS5003;25631;51.516;-0.470;2022-09-03T03:53:10;12;10;
39955;PMS5003;25631;51.516;-0.470;2022-09-03T03:55:53;12;10;
39955;PMS5003;25631;51.516;-0.470;2022-09-03T03:58:31;13;11;
39955;PMS5003;25631;51.516;-0.470;2022-09-03T04:01:09;13;12;
39955;PMS5003;25631;51.516;-0.470;2022-09-03T04:03:47;13;12;
39955;PMS5003;25631;51.516;-0.470;2022-09-03T04:06:23;13;12;
39955;PMS5003;25631;51.516;-0.470;2022-09-03T04:09:00;11;11;
39955;PMS5003;25631;51.516;-0.470;2022-09-03T04:11:37;10;10;
39955;PMS5003;25631;51.516;-0.470;2022-09-03T04:14:13;9;9;
39955;PMS5003;25631;51.516;-0.470;2022-09-03T04:16:49;9;9;
39955;PMS5003;25631;51.516;-0.470;2022-09-03T04:19:26;10;10;
39955;PMS5003;25631;51.516;-0.470;2022-09-03T04:22:02;12;12;
39955;PMS5003;25631;51.516;-0.470;2022-09-03T04:24:38;13;13;
39955;PMS5003;25631;51.516;-0.470;2022-09-03T04:27:15;14;14;
39955;PMS5003;25631;51.516;-0.470;2022-09-03T04:29:51;14;14;
39955;PMS5003;25631;51.516;-0.470;2022-09-03T04:32:27;14;14;
39955;PMS5003;25631;51.516;-0.470;2022-09-03T04:35:04;14;14;
39955;PMS5003;25631;51.516;-0.470;2022-09-03T04:37:41;15;15;
39955;PMS5003;25631;51.516;-0.470;2022-09-03T04:40:17;15;15;
39955;PMS5003;25631;51.516;-0.470;2022-09-03T04:42:55;15;15;
39955;PMS5003;25631;51.516;-0.470;2022-09-03T04:45:32;17;17;
39955;PMS5003;25631;51.516;-0.470;2022-09-03T04:48:08;18;17;
39955;PMS5003;25631;51.516;-0.470;2022-09-03T04:50:44;14;11;
39955;PMS5003;25631;51.516;-0.470;2022-09-03T04:53:21;14;11;
39955;PMS5003;25631;51.516;-0.470;2022-09-03T04:55:57;14;11;
39955;PMS5003;25631;51.516;-0.470;2022-09-03T04:58:33;12;11;
39955;PMS5003;25631;51.516;-0.470;2022-09-03T05:01:10;11;10;
39955;PMS5003;25631;51.516;-0.470;2022-09-03T05:03:50;11;10;
39955;PMS5003;25631;51.516;-0.470;2022-09-03T05:06:27;12;10;
39955;PMS5003;25631;51.516;-0.470;2022-09-03T05:09:04;12;10;
39955;PMS5003;25631;51.516;-0.470;2022-09-03T05:11:41;13;11;
39955;PMS5003;25631;51.516;-0.470;2022-09-03T05:14:17;14;12;
39955;PMS5003;25631;51.516;-0.470;2022-09-03T05:16:54;14;12;
39955;PMS5003;25631;51.516;-0.470;2022-09-03T05:19:30;14;12;
39955;PMS5003;25631;51.516;-0.470;2022-09-03T05:22:07;14;12;
39955;PMS5003;25631;51.516;-0.470;2022-09-03T05:24:43;14;12;
39955;PMS5003;25631;51.516;-0.470;2022-09-03T05:27:19;14;12;
39955;PMS5003;25631;51.516;-0.470;2022-09-03T05:29:56;15;12;
39955;PMS5003;25631;51.516;-0.470;2022-09-03T05:32:32;16;14;
39955;PMS5003;25631;51.516;-0.470;2022-09-03T05:35:09;16;14;
39955;PMS5003;25631;51.516;-0.470;2022-09-03T05:37:45;16;14;
39955;PMS5003;25631;51.516;-0.470;2022-09-03T05:40:21;16;14;
39955;PMS5003;25631;51.516;-0.470;2022-09-03T05:42:58;16;14;
39955;PMS5003;25631;51.516;-0.470;2022-09-03T05:45:34;16;14;
39955;PMS5003;25631;51.516;-0.470;2022-09-03T05:48:11;16;14;
39955;PMS5003;25631;51.516;-0.470;2022-09-03T05:50:47;16;14;
39955;PMS5003;25631;51.516;-0.470;2022-09-03T05:53:23;16;15;
39955;PMS5003;25631;51.516;-0.470;2022-09-03T05:56:00;16;15;
39955;PMS5003;25631;51.516;-0.470;2022-09-03T05:58:39;16;15;
39955;PMS5003;25631;51.516;-0.470;2022-09-03T06:01:17;15;14;
39955;PMS5003;25631;51.516;-0.470;2022-09-03T06:03:56;15;14;
39955;PMS5003;25631;51.516;-0.470;2022-09-03T06:06:35;15;14;
39955;PMS5003;25631;51.516;-0.470;2022-09-03T06:09:13;15;14;
39955;PMS5003;25631;51.516;-0.470;2022-09-03T06:11:51;15;14;
39955;PMS5003;25631;51.516;-0.470;2022-09-03T06:14:28;13;12;
39955;PMS5003;25631;51.516;-0.470;2022-09-03T06:17:04;13;11;
39955;PMS5003;25631;51.516;-0.470;2022-09-03T06:19:40;13;11;
39955;PMS5003;25631;51.516;-0.470;2022-09-03T06:22:17;13;11;
39955;PMS5003;25631;51.516;-0.470;2022-09-03T06:24:53;13;11;
39955;PMS5003;25631;51.516;-0.470;2022-09-03T06:27:29;13;11;
39955;PMS5003;25631;51.516;-0.470;2022-09-03T06:30:06;13;11;
39955;PMS5003;25631;51.516;-0.470;2022-09-03T06:32:43;13;12;
39955;PMS5003;25631;51.516;-0.470;2022-09-03T06:35:20;13;12;
39955;PMS5003;25631;51.516;-0.470;2022-09-03T06:37:57;13;12;
39955;PMS5003;25631;51.516;-0.470;2022-09-03T06:40:33;13;12;
39955;PMS5003;25631;51.516;-0.470;2022-09-03T06:43:09;13;12;
39955;PMS5003;25631;51.516;-0.470;2022-09-03T06:45:52;13;12;
39955;PMS5003;25631;51.516;-0.470;2022-09-03T06:48:29;14;12;
39955;PMS5003;25631;51.516;-0.470;2022-09-03T06:51:08;14;12;
39955;PMS5003;25631;51.516;-0.470;2022-09-03T06:53:48;14;12;
39955;PMS5003;25631;51.516;-0.470;2022-09-03T06:56:25;8;7;
39955;PMS5003;25631;51.516;-0.470;2022-09-03T06:59:03;8;7;
39955;PMS5003;25631;51.516;-0.470;2022-09-03T07:01:41;8;7;
39955;PMS5003;25631;51.516;-0.470;2022-09-03T07:04:19;8;7;
39955;PMS5003;25631;51.516;-0.470;2022-09-03T07:06:55;8;7;
39955;PMS5003;25631;51.516;-0.470;2022-09-03T07:09:31;8;7;
39955;PMS5003;25631;51.516;-0.470;2022-09-03T07:12:08;8;7;
39955;PMS5003;25631;51.516;-0.470;2022-09-03T07:14:45;8;7;
39955;PMS5003;25631;51.516;-0.470;2022-09-03T07:17:22;8;7;
39955;PMS5003;25631;51.516;-0.470;2022-09-03T07:19:58;8;7;
39955;PMS5003;25631;51.516;-0.470;2022-09-03T07:22:34;8;7;
39955;PMS5003;25631;51.516;-0.470;2022-09-03T07:25:11;8;7;
39955;PMS5003;25631;51.516;-0.470;2022-09-03T07:27:48;8;7;
39955;PMS5003;25631;51.516;-0.470;2022-09-03T07:30:25;8;7;
39955;PMS5003;25631;51.516;-0.470;2022-09-03T07:33:01;7;6;
39955;PMS5003;25631;51.516;-0.470;2022-09-03T07:35:38;7;6;
39955;PMS5003;25631;51.516;-0.470;2022-09-03T07:38:16;10;8;
39955;PMS5003;25631;51.516;-0.470;2022-09-03T07:40:56;9;7;
39955;PMS5003;25631;51.516;-0.470;2022-09-03T07:43:34;9;7;
39955;PMS5003;25631;51.516;-0.470;2022-09-03T07:46:11;9;7;
39955;PMS5003;25631;51.516;-0.470;2022-09-03T07:48:49;9;8;
39955;PMS5003;25631;51.516;-0.470;2022-09-03T07:51:26;9;8;
39955;PMS5003;25631;51.516;-0.470;2022-09-03T07:54:05;9;8;
39955;PMS5003;25631;51.516;-0.470;2022-09-03T07:56:42;9;8;
39955;PMS5003;25631;51.516;-0.470;2022-09-03T07:59:19;9;8;
39955;PMS5003;25631;51.516;-0.470;2022-09-03T08:01:55;9;8;
39955;PMS5003;25631;51.516;-0.470;2022-09-03T08:04:31;9;8;
39955;PMS5003;25631;51.516;-0.470;2022-09-03T08:07:08;9;8;
39955;PMS5003;25631;51.516;-0.470;2022-09-03T08:09:44;9;8;
39955;PMS5003;25631;51.516;-0.470;2022-09-03T08:12:20;8;7;
39955;PMS5003;25631;51.516;-0.470;2022-09-03T08:14:57;8;7;
39955;PMS5003;25631;51.516;-0.470;2022-09-03T08:17:37;9;8;
39955;PMS5003;25631;51.516;-0.470;2022-09-03T08:20:13;8;7;
39955;PMS5003;25631;51.516;-0.470;2022-09-03T08:22:50;8;7;
39955;PMS5003;25631;51.516;-0.470;2022-09-03T08:25:26;8;7;
39955;PMS5003;25631;51.516;-0.470;2022-09-03T08:28:02;9;8;
39955;PMS5003;25631;51.516;-0.470;2022-09-03T08:30:39;9;8;
39955;PMS5003;25631;51.516;-0.470;2022-09-03T08:33:15;9;8;
39955;PMS5003;25631;51.516;-0.470;2022-09-03T08:35:52;9;8;
39955;PMS5003;25631;51.516;-0.470;2022-09-03T08:38:29;9;8;
39955;PMS5003;25631;51.516;-0.470;2022-09-03T08:41:09;9;8;
39955;PMS5003;25631;51.516;-0.470;2022-09-03T08:43:52;8;8;
39955;PMS5003;25631;51.516;-0.470;2022-09-03T08:46:43;8;8;
39955;PMS5003;25631;51.516;-0.470;2022-09-03T08:49:25;8;8;
39955;PMS5003;25631;51.516;-0.470;2022-09-03T08:52:12;9;9;
39955;PMS5003;25631;51.516;-0.470;2022-09-03T08:55:00;9;9;
39955;PMS5003;25631;51.516;-0.470;2022-09-03T08:57:48;9;9;
39955;PMS5003;25631;51.516;-0.470;2022-09-03T09:00:31;9;9;
39955;PMS5003;25631;51.516;-0.470;2022-09-03T09:03:27;9;9;
39955;PMS5003;25631;51.516;-0.470;2022-09-03T09:06:14;9;9;
39955;PMS5003;25631;51.516;-0.470;2022-09-03T09:08:58;7;7;
39955;PMS5003;25631;51.516;-0.470;2022-09-03T09:11:47;7;7;
39955;PMS5003;25631;51.516;-0.470;2022-09-03T09:14:34;7;7;
39955;PMS5003;25631;51.516;-0.470;2022-09-03T09:17:20;8;7;
39955;PMS5003;25631;51.516;-0.470;2022-09-03T09:20:09;9;8;
39955;PMS5003;25631;51.516;-0.470;2022-09-03T09:22:53;9;8;
39955;PMS5003;25631;51.516;-0.470;2022-09-03T09:25:33;9;8;
39955;PMS5003;25631;51.516;-0.470;2022-09-03T09:28:16;9;8;
39955;PMS5003;25631;51.516;-0.470;2022-09-03T09:30:55;9;8;
39955;PMS5003;25631;51.516;-0.470;2022-09-03T09:33:32;10;9;
39955;PMS5003;25631;51.516;-0.470;2022-09-03T09:36:10;10;9;
39955;PMS5003;25631;51.516;-0.470;2022-09-03T09:38:48;10;9;
39955;PMS5003;25631;51.516;-0.470;2022-09-03T09:41:24;7;6;
39955;PMS5003;25631;51.516;-0.470;2022-09-03T09:44:01;8;7;
39955;PMS5003;25631;51.516;-0.470;2022-09-03T09:46:38;8;7;
39955;PMS5003;25631;51.516;-0.470;2022-09-03T09:49:23;8;7;
39955;PMS5003;25631;51.516;-0.470;2022-09-03T09:52:07;7;7;
39955;PMS5003;25631;51.516;-0.470;2022-09-03T09:54:44;7;7;
39955;PMS5003;25631;51.516;-0.470;2022-09-03T09:57:22;7;7;
39955;PMS5003;25631;51.516;-0.470;2022-09-03T10:00:03;7;7;
39955;PMS5003;25631;51.516;-0.470;2022-09-03T10:02:46;6;6;
39955;PMS5003;25631;51.516;-0.470;2022-09-03T10:05:25;6;6;
39955;PMS5003;25631;51.516;-0.470;2022-09-03T10:08:03;6;6;
39955;PMS5003;25631;51.516;-0.470;2022-09-03T10:10:41;7;7;
39955;PMS5003;25631;51.516;-0.470;2022-09-03T10:13:23;7;7;
39955;PMS5003;25631;51.516;-0.470;2022-09-03T10:16:07;7;6;
39955;PMS5003;25631;51.516;-0.470;2022-09-03T10:18:51;7;6;
39955;PMS5003;25631;51.516;-0.470;2022-09-03T10:21:38;7;6;
39955;PMS5003;25631;51.516;-0.470;2022-09-03T10:24:40;7;6;
39955;PMS5003;25631;51.516;-0.470;2022-09-03T10:27:24;7;6;
39955;PMS5003;25631;51.516;-0.470;2022-09-03T10:30:01;7;6;
39955;PMS5003;25631;51.516;-0.470;2022-09-03T10:32:40;7;6;
39955;PMS5003;25631;51.516;-0.470;2022-09-03T10:35:25;7;6;
39955;PMS5003;25631;51.516;-0.470;2022-09-03T10:38:07;7;6;
39955;PMS5003;25631;51.516;-0.470;2022-09-03T10:40:51;7;6;
39955;PMS5003;25631;51.516;-0.470;2022-09-03T10:43:58;7;6;
39955;PMS5003;25631;51.516;-0.470;2022-09-03T10:46:50;7;6;
39955;PMS5003;25631;51.516;-0.470;2022-09-03T10:49:39;7;6;
39955;PMS5003;25631;51.516;-0.470;2022-09-03T10:52:26;7;6;
39955;PMS5003;25631;51.516;-0.470;2022-09-03T10:55:11;7;6;
39955;PMS5003;25631;51.516;-0.470;2022-09-03T10:57:56;7;6;
39955;PMS5003;25631;51.516;-0.470;2022-09-03T11:00:46;7;6;
39955;PMS5003;25631;51.516;-0.470;2022-09-03T11:03:35;7;6;
39955;PMS5003;25631;51.516;-0.470;2022-09-03T11:06:20;7;6;
39955;PMS5003;25631;51.516;-0.470;2022-09-03T11:09:01;6;6;
39955;PMS5003;25631;51.516;-0.470;2022-09-03T11:11:47;6;6;
39955;PMS5003;25631;51.516;-0.470;2022-09-03T11:14:32;6;6;
39955;PMS5003;25631;51.516;-0.470;2022-09-03T11:17:13;7;7;
39955;PMS5003;25631;51.516;-0.470;2022-09-03T11:19:58;7;7;
39955;PMS5003;25631;51.516;-0.470;2022-09-03T11:22:45;7;7;
39955;PMS5003;25631;51.516;-0.470;2022-09-03T11:25:24;8;8;
39955;PMS5003;25631;51.516;-0.470;2022-09-03T11:28:09;8;8;
39955;PMS5003;25631;51.516;-0.470;2022-09-03T11:31:02;8;8;
39955;PMS5003;25631;51.516;-0.470;2022-09-03T11:33:48;8;7;
39955;PMS5003;25631;51.516;-0.470;2022-09-03T11:36:30;8;7;
39955;PMS5003;25631;51.516;-0.470;2022-09-03T11:39:12;8;7;
39955;PMS5003;25631;51.516;-0.470;2022-09-03T11:41:57;7;7;
39955;PMS5003;25631;51.516;-0.470;2022-09-03T11:44:35;7;7;
39955;PMS5003;25631;51.516;-0.470;2022-09-03T11:47:13;7;7;
39955;PMS5003;25631;51.516;-0.470;2022-09-03T11:49:51;8;7;
39955;PMS5003;25631;51.516;-0.470;2022-09-03T11:52:39;7;5;
39955;PMS5003;25631;51.516;-0.470;2022-09-03T11:55:24;6;5;
39955;PMS5003;25631;51.516;-0.470;2022-09-03T11:58:09;6;5;
39955;PMS5003;25631;51.516;-0.470;2022-09-03T12:00:47;6;5;
39955;PMS5003;25631;51.516;-0.470;2022-09-03T12:03:25;6;5;
39955;PMS5003;25631;51.516;-0.470;2022-09-03T12:06:11;6;5;
39955;PMS5003;25631;51.516;-0.470;2022-09-03T12:09:01;6;5;
39955;PMS5003;25631;51.516;-0.470;2022-09-03T12:11:57;7;5;
39955;PMS5003;25631;51.516;-0.470;2022-09-03T12:14:46;7;5;
39955;PMS5003;25631;51.516;-0.470;2022-09-03T12:17:30;7;5;
39955;PMS5003;25631;51.516;-0.470;2022-09-03T12:20:14;7;5;
39955;PMS5003;25631;51.516;-0.470;2022-09-03T12:22:51;7;5;
39955;PMS5003;25631;51.516;-0.470;2022-09-03T12:25:27;7;5;
39955;PMS5003;25631;51.516;-0.470;2022-09-03T12:28:10;7;5;
39955;PMS5003;25631;51.516;-0.470;2022-09-03T12:30:47;8;6;
39955;PMS5003;25631;51.516;-0.470;2022-09-03T12:33:24;8;6;
39955;PMS5003;25631;51.516;-0.470;2022-09-03T12:36:01;9;8;
39955;PMS5003;25631;51.516;-0.470;2022-09-03T12:38:37;9;8;
39955;PMS5003;25631;51.516;-0.470;2022-09-03T12:41:22;8;8;
39955;PMS5003;25631;51.516;-0.470;2022-09-03T12:43:59;8;8;
39955;PMS5003;25631;51.516;-0.470;2022-09-03T12:46:36;9;9;
39955;PMS5003;25631;51.516;-0.470;2022-09-03T12:49:13;10;9;
39955;PMS5003;25631;51.516;-0.470;2022-09-03T12:51:50;10;9;
39955;PMS5003;25631;51.516;-0.470;2022-09-03T12:54:26;9;8;
39955;PMS5003;25631;51.516;-0.470;2022-09-03T12:57:04;9;8;
39955;PMS5003;25631;51.516;-0.470;2022-09-03T12:59:41;9;8;
39955;PMS5003;25631;51.516;-0.470;2022-09-03T13:02:18;9;8;
39955;PMS5003;25631;51.516;-0.470;2022-09-03T13:05:00;9;8;
39955;PMS5003;25631;51.516;-0.470;2022-09-03T13:07:38;9;8;
39955;PMS5003;25631;51.516;-0.470;2022-09-03T13:10:18;9;8;
39955;PMS5003;25631;51.516;-0.470;2022-09-03T13:13:00;10;9;
39955;PMS5003;25631;51.516;-0.470;2022-09-03T13:15:39;10;9;
39955;PMS5003;25631;51.516;-0.470;2022-09-03T13:18:18;6;6;
39955;PMS5003;25631;51.516;-0.470;2022-09-03T13:21:04;6;6;
39955;PMS5003;25631;51.516;-0.470;2022-09-03T13:23:55;6;6;
39955;PMS5003;25631;51.516;-0.470;2022-09-03T13:26:45;6;6;
39955;PMS5003;25631;51.516;-0.470;2022-09-03T13:29:36;6;6;
39955;PMS5003;25631;51.516;-0.470;2022-09-03T13:32:24;6;6;
39955;PMS5003;25631;51.516;-0.470;2022-09-03T13:35:10;6;6;
39955;PMS5003;25631;51.516;-0.470;2022-09-03T13:37:53;6;6;
39955;PMS5003;25631;51.516;-0.470;2022-09-03T13:40:34;7;7;
39955;PMS5003;25631;51.516;-0.470;2022-09-03T13:43:20;7;7;
39955;PMS5003;25631;51.516;-0.470;2022-09-03T13:46:05;7;7;
39955;PMS5003;25631;51.516;-0.470;2022-09-03T13:48:45;9;9;
39955;PMS5003;25631;51.516;-0.470;2022-09-03T13:51:26;9;9;
39955;PMS5003;25631;51.516;-0.470;2022-09-03T13:54:06;9;9;
39955;PMS5003;25631;51.516;-0.470;2022-09-03T13:56:52;11;11;
39955;PMS5003;25631;51.516;-0.470;2022-09-03T13:59:34;11;11;
39955;PMS5003;25631;51.516;-0.470;2022-09-03T14:02:22;19;17;
39955;PMS5003;25631;51.516;-0.470;2022-09-03T14:05:07;20;18;
39955;PMS5003;25631;51.516;-0.470;2022-09-03T14:07:51;18;17;
39955;PMS5003;25631;51.516;-0.470;2022-09-03T14:10:51;14;14;
39955;PMS5003;25631;51.516;-0.470;2022-09-03T14:13:40;15;15;
39955;PMS5003;25631;51.516;-0.470;2022-09-03T14:16:27;16;16;
39955;PMS5003;25631;51.516;-0.470;2022-09-03T14:19:13;17;16;
39955;PMS5003;25631;51.516;-0.470;2022-09-03T14:21:55;18;17;
39955;PMS5003;25631;51.516;-0.470;2022-09-03T14:24:38;18;17;
39955;PMS5003;25631;51.516;-0.470;2022-09-03T14:27:22;19;19;
39955;PMS5003;25631;51.516;-0.470;2022-09-03T14:30:02;19;19;
39955;PMS5003;25631;51.516;-0.470;2022-09-03T14:32:43;19;19;
39955;PMS5003;25631;51.516;-0.470;2022-09-03T14:35:30;20;19;
39955;PMS5003;25631;51.516;-0.470;2022-09-03T14:38:14;21;20;
39955;PMS5003;25631;51.516;-0.470;2022-09-03T14:41:42;22;21;
39955;PMS5003;25631;51.516;-0.470;2022-09-03T14:44:36;22;21;
39955;PMS5003;25631;51.516;-0.470;2022-09-03T14:47:29;5;5;
39955;PMS5003;25631;51.516;-0.470;2022-09-03T14:50:21;5;5;
39955;PMS5003;25631;51.516;-0.470;2022-09-03T14:53:13;5;4;
39955;PMS5003;25631;51.516;-0.470;2022-09-03T14:56:03;5;4;
39955;PMS5003;25631;51.516;-0.470;2022-09-03T14:58:53;5;4;
39955;PMS5003;25631;51.516;-0.470;2022-09-03T15:01:44;5;5;
39955;PMS5003;25631;51.516;-0.470;2022-09-03T15:04:35;5;5;
39955;PMS5003;25631;51.516;-0.470;2022-09-03T15:07:29;5;5;
39955;PMS5003;25631;51.516;-0.470;2022-09-03T15:10:12;5;5;
39955;PMS5003;25631;51.516;-0.470;2022-09-03T15:12:56;5;5;
39955;PMS5003;25631;51.516;-0.470;2022-09-03T15:15:43;5;5;
39955;PMS5003;25631;51.516;-0.470;2022-09-03T15:18:31;5;5;
39955;PMS5003;25631;51.516;-0.470;2022-09-03T15:21:24;5;5;
39955;PMS5003;25631;51.516;-0.470;2022-09-03T15:24:12;5;5;
39955;PMS5003;25631;51.516;-0.470;2022-09-03T15:27:02;5;5;
39955;PMS5003;25631;51.516;-0.470;2022-09-03T15:29:48;4;4;
39955;PMS5003;25631;51.516;-0.470;2022-09-03T15:32:31;4;4;
39955;PMS5003;25631;51.516;-0.470;2022-09-03T15:35:29;4;4;
39955;PMS5003;25631;51.516;-0.470;2022-09-03T15:38:18;4;4;
39955;PMS5003;25631;51.516;-0.470;2022-09-03T15:40:59;3;3;
39955;PMS5003;25631;51.516;-0.470;2022-09-03T15:43:41;3;3;
39955;PMS5003;25631;51.516;-0.470;2022-09-03T15:46:33;3;3;
39955;PMS5003;25631;51.516;-0.470;2022-09-03T15:49:22;4;4;
39955;PMS5003;25631;51.516;-0.470;2022-09-03T15:52:07;4;4;
39955;PMS5003;25631;51.516;-0.470;2022-09-03T15:54:52;4;4;
39955;PMS5003;25631;51.516;-0.470;2022-09-03T15:57:38;4;3;
39955;PMS5003;25631;51.516;-0.470;2022-09-03T16:00:22;4;3;
39955;PMS5003;25631;51.516;-0.470;2022-09-03T16:03:00;4;3;
39955;PMS5003;25631;51.516;-0.470;2022-09-03T16:05:45;4;3;
39955;PMS5003;25631;51.516;-0.470;2022-09-03T16:08:27;5;4;
39955;PMS5003;25631;51.516;-0.470;2022-09-03T16:11:16;5;4;
39955;PMS5003;25631;51.516;-0.470;2022-09-03T16:14:03;5;4;
39955;PMS5003;25631;51.516;-0.470;2022-09-03T16:16:49;2;2;
39955;PMS5003;25631;51.516;-0.470;2022-09-03T16:19:34;2;2;
39955;PMS5003;25631;51.516;-0.470;2022-09-03T16:22:20;2;2;
39955;PMS5003;25631;51.516;-0.470;2022-09-03T16:25:02;3;3;
39955;PMS5003;25631;51.516;-0.470;2022-09-03T16:27:49;3;3;
39955;PMS5003;25631;51.516;-0.470;2022-09-03T16:30:34;5;4;
39955;PMS5003;25631;51.516;-0.470;2022-09-03T16:33:22;5;4;
39955;PMS5003;25631;51.516;-0.470;2022-09-03T16:36:11;4;3;
39955;PMS5003;25631;51.516;-0.470;2022-09-03T16:39:02;4;3;
39955;PMS5003;25631;51.516;-0.470;2022-09-03T16:41:49;4;3;
39955;PMS5003;25631;51.516;-0.470;2022-09-03T16:44:38;5;4;
39955;PMS5003;25631;51.516;-0.470;2022-09-03T16:47:25;6;4;
39955;PMS5003;25631;51.516;-0.470;2022-09-03T16:50:14;6;4;
39955;PMS5003;25631;51.516;-0.470;2022-09-03T16:53:03;6;4;
39955;PMS5003;25631;51.516;-0.470;2022-09-03T16:55:51;4;3;
39955;PMS5003;25631;51.516;-0.470;2022-09-03T16:58:36;4;3;
39955;PMS5003;25631;51.516;-0.470;2022-09-03T17:01:35;6;6;
39955;PMS5003;25631;51.516;-0.470;2022-09-03T17:04:26;6;6;
39955;PMS5003;25631;51.516;-0.470;2022-09-03T17:07:18;6;6;
39955;PMS5003;25631;51.516;-0.470;2022-09-03T17:10:09;6;6;
39955;PMS5003;25631;51.516;-0.470;2022-09-03T17:13:06;5;5;
39955;PMS5003;25631;51.516;-0.470;2022-09-03T17:15:53;5;5;
39955;PMS5003;25631;51.516;-0.470;2022-09-03T17:18:40;5;5;
39955;PMS5003;25631;51.516;-0.470;2022-09-03T17:21:30;4;4;
39955;PMS5003;25631;51.516;-0.470;2022-09-03T17:24:46;4;4;
39955;PMS5003;25631;51.516;-0.470;2022-09-03T17:27:33;4;4;
39955;PMS5003;25631;51.516;-0.470;2022-09-03T17:30:25;4;4;
39955;PMS5003;25631;51.516;-0.470;2022-09-03T17:33:18;4;4;
39955;PMS5003;25631;51.516;-0.470;2022-09-03T17:36:10;4;4;
39955;PMS5003;25631;51.516;-0.470;2022-09-03T17:38:57;4;4;
39955;PMS5003;25631;51.516;-0.470;2022-09-03T17:41:58;4;4;
39955;PMS5003;25631;51.516;-0.470;2022-09-03T17:44:43;3;3;
39955;PMS5003;25631;51.516;-0.470;2022-09-03T17:47:36;7;6;
39955;PMS5003;25631;51.516;-0.470;2022-09-03T17:50:27;7;6;
39955;PMS5003;25631;51.516;-0.470;2022-09-03T17:53:11;7;6;
39955;PMS5003;25631;51.516;-0.470;2022-09-03T17:55:55;7;6;
39955;PMS5003;25631;51.516;-0.470;2022-09-03T17:58:37;7;6;
39955;PMS5003;25631;51.516;-0.470;2022-09-03T18:01:20;6;5;
39955;PMS5003;25631;51.516;-0.470;2022-09-03T18:04:02;6;5;